Time;durP1;ratioP1;P1;durP2;ratioP2;P2;SDS_P1;SDS_P2;PMS_P1;PMS_P2;Temp;Humidity;BMP_temperature;BMP_pressure;BME280_temperature;BME280_humidity;BME280_pressure;Samples;Min_cycle;Max_cycle;Signal;HPM_P1;HPM_P2
2024/01/17 00:02:23;;;;;;;51.70;21.00;;;;;;;-2.93;88.72;99508.45;107825;1253;22989;-76
2024/01/17 00:05:12;;;;;;;;;;;;;;;-2.94;88.96;99502.07;107618;1274;22535;-76
2024/01/17 00:08:03;;;;;;;50.70;20.50;;;;;;;-2.95;89.15;99502.38;107800;1274;25668;-77
2024/01/17 00:10:54;;;;;;;52.70;19.30;;;;;;;-2.94;89.21;99501.52;107962;1262;22720;-76
2024/01/17 00:13:45;;;;;;;48.20;17.10;;;;;;;-2.94;88.82;99491.39;107866;1262;23724;-77
2024/01/17 00:16:37;;;;;;;45.90;16.50;;;;;;;-2.98;88.34;99488.99;107803;1274;25583;-78
2024/01/17 00:19:29;;;;;;;45.00;16.50;;;;;;;-3.02;88.40;99478.51;107844;1274;22781;-76
2024/01/17 00:22:20;;;;;;;48.60;17.70;;;;;;;-3.07;88.11;99476.93;107797;1274;22658;-78
2024/01/17 00:25:11;;;;;;;47.80;20.40;;;;;;;-3.11;88.00;99469.16;107871;1268;22540;-77
2024/01/17 00:28:03;;;;;;;58.20;22.10;;;;;;;-3.16;87.89;99470.54;107777;1274;22637;-76
2024/01/17 00:30:54;;;;;;;61.70;23.00;;;;;;;-3.18;87.90;99473.69;108048;1274;22679;-76
2024/01/17 00:33:45;;;;;;;64.10;24.90;;;;;;;-3.20;88.09;99475.41;107810;1274;24125;-76
2024/01/17 00:36:37;;;;;;;66.70;25.10;;;;;;;-3.22;88.02;99475.44;107793;1274;23532;-76
2024/01/17 00:39:28;;;;;;;69.20;25.70;;;;;;;-3.26;87.62;99478.05;107863;1274;22781;-76
2024/01/17 00:42:19;;;;;;;66.30;23.00;;;;;;;-3.31;87.23;99481.06;108028;1274;24921;-76
2024/01/17 00:45:13;;;;;;;62.40;21.30;;;;;;;-3.37;87.23;99477.60;108131;1271;22737;-77
2024/01/17 00:48:04;;;;;;;56.40;20.90;;;;;;;-3.43;87.09;99473.77;107973;1274;22545;-77
2024/01/17 00:50:55;;;;;;;59.80;22.60;;;;;;;-3.49;86.86;99467.12;107859;1269;22793;-77
2024/01/17 00:53:46;;;;;;;53.30;22.00;;;;;;;-3.54;86.74;99467.78;108318;1274;24225;-77
2024/01/17 00:56:37;;;;;;;51.50;18.10;;;;;;;-3.61;86.22;99472.52;108117;1274;22868;-78
2024/01/17 00:59:28;;;;;;;53.60;19.80;;;;;;;-3.66;86.28;99475.06;108122;1270;24189;-76
2024/01/17 01:02:19;;;;;;;46.00;17.40;;;;;;;-3.71;86.28;99469.48;107933;1274;22767;-76
2024/01/17 01:05:10;;;;;;;47.80;15.00;;;;;;;-3.84;85.43;99469.49;108130;1274;23359;-80
2024/01/17 01:08:01;;;;;;;45.60;17.80;;;;;;;-3.95;86.07;99461.88;107951;1274;24221;-77
2024/01/17 01:10:51;;;;;;;;;;;;;;;-3.99;86.11;99460.27;108175;1271;22520;-76
2024/01/17 01:13:42;;;;;;;48.50;15.60;;;;;;;-4.01;86.40;99458.18;108215;1271;22597;-76
2024/01/17 01:16:33;;;;;;;51.80;16.00;;;;;;;-4.05;86.26;99458.60;107911;1274;22566;-76
2024/01/17 01:19:24;;;;;;;43.70;17.80;;;;;;;-4.11;85.84;99457.77;107884;1274;22758;-75
2024/01/17 01:22:14;;;;;;;49.60;18.20;;;;;;;-4.17;85.85;99459.14;108222;1274;22601;-76
2024/01/17 01:25:06;;;;;;;52.80;18.50;;;;;;;-4.20;85.54;99456.44;108091;1274;22907;-79
2024/01/17 01:27:57;;;;;;;62.60;20.50;;;;;;;-4.26;85.70;99446.20;107889;1274;25539;-77
2024/01/17 01:30:48;;;;;;;57.60;21.70;;;;;;;-4.29;85.75;99442.86;107990;1274;24354;-76
2024/01/17 01:33:39;;;;;;;71.20;26.40;;;;;;;-4.32;85.90;99435.41;107980;1274;22628;-76
2024/01/17 01:36:28;;;;;;;;;;;;;;;-4.39;85.43;99426.45;107690;1274;22507;-76
2024/01/17 01:39:19;;;;;;;58.90;24.50;;;;;;;-4.46;85.18;99419.07;107964;1260;22727;-76
2024/01/17 01:42:08;;;;;;;;;;;;;;;-4.52;85.05;99415.91;108014;1273;22801;-76
2024/01/17 01:44:59;;;;;;;58.90;21.70;;;;;;;-4.57;85.38;99408.33;108015;1253;22826;-76
2024/01/17 01:47:50;;;;;;;56.20;21.80;;;;;;;-4.59;85.52;99403.89;107991;1270;25477;-76
2024/01/17 01:50:42;;;;;;;56.50;21.40;;;;;;;-4.63;85.26;99402.60;107935;1273;24032;-76
2024/01/17 01:53:35;;;;;;;66.20;20.40;;;;;;;-4.70;84.78;99401.00;107940;1274;22666;-77
2024/01/17 01:56:29;;;;;;;63.90;24.50;;;;;;;-4.78;84.65;99403.98;108154;1274;24361;-76
2024/01/17 01:59:22;;;;;;;58.40;23.40;;;;;;;-4.86;84.47;99403.02;108033;1253;22738;-75
2024/01/17 02:02:13;;;;;;;58.00;23.00;;;;;;;-4.90;84.59;99397.67;107876;1274;22648;-77
2024/01/17 02:05:04;;;;;;;55.60;22.80;;;;;;;-4.95;84.49;99396.45;107619;1274;22797;-76
2024/01/17 02:07:56;;;;;;;54.60;21.30;;;;;;;-5.00;84.28;99399.34;107759;1274;24329;-75
2024/01/17 02:10:47;;;;;;;67.30;24.70;;;;;;;-5.06;83.92;99396.25;107907;1267;22634;-75
2024/01/17 02:13:38;;;;;;;57.10;24.30;;;;;;;-5.13;83.91;99393.27;107850;1274;26303;-76
2024/01/17 02:16:29;;;;;;;64.20;21.50;;;;;;;-5.19;83.77;99397.94;107898;1266;22687;-77
2024/01/17 02:19:21;;;;;;;58.40;21.90;;;;;;;-5.25;83.83;99399.21;107915;1269;22740;-76
2024/01/17 02:22:12;;;;;;;58.90;22.40;;;;;;;-5.31;83.54;99399.70;107727;1266;23431;-78
2024/01/17 02:25:06;;;;;;;55.70;23.20;;;;;;;-5.38;83.42;99406.33;107462;1274;22679;-76
2024/01/17 02:27:57;;;;;;;60.60;21.80;;;;;;;-5.46;83.38;99405.56;107705;1274;22710;-76
2024/01/17 02:30:48;;;;;;;57.50;19.50;;;;;;;-5.52;83.34;99403.48;107660;1274;22616;-76
2024/01/17 02:33:38;;;;;;;56.10;19.80;;;;;;;-5.57;83.55;99399.98;107947;1274;22761;-77
2024/01/17 02:36:30;;;;;;;48.60;18.90;;;;;;;-5.61;83.41;99396.81;107697;1274;22623;-75
2024/01/17 02:39:21;;;;;;;58.90;21.30;;;;;;;-5.66;83.63;99393.95;107570;1274;22709;-75
2024/01/17 02:42:12;;;;;;;58.40;20.50;;;;;;;-5.69;83.37;99386.89;107798;1271;22887;-76
2024/01/17 02:45:03;;;;;;;51.80;20.50;;;;;;;-5.72;83.37;99386.34;107793;1269;25607;-75
2024/01/17 02:47:54;;;;;;;62.20;22.40;;;;;;;-5.77;83.23;99381.99;107873;1274;25497;-76
2024/01/17 02:50:45;;;;;;;58.70;21.30;;;;;;;-5.83;82.76;99383.34;107908;1271;23512;-76
2024/01/17 02:53:36;;;;;;;55.30;19.00;;;;;;;-5.90;82.68;99384.69;107682;1273;22559;-76
2024/01/17 02:56:27;;;;;;;55.10;21.80;;;;;;;-5.95;82.64;99388.02;107807;1274;23297;-77
2024/01/17 02:59:18;;;;;;;56.90;20.90;;;;;;;-5.98;83.02;99388.27;107667;1274;22565;-76
2024/01/17 03:02:09;;;;;;;54.70;18.50;;;;;;;-5.98;83.36;99387.02;107679;1271;24166;-76
2024/01/17 03:05:00;;;;;;;54.60;18.60;;;;;;;-5.98;83.72;99388.27;107703;1274;22686;-76
2024/01/17 03:07:50;;;;;;;53.70;21.70;;;;;;;-5.98;83.81;99385.78;107677;1274;24227;-76
2024/01/17 03:10:41;;;;;;;52.70;18.00;;;;;;;-6.00;83.74;99382.44;107940;1274;23404;-76
2024/01/17 03:13:32;;;;;;;63.00;22.50;;;;;;;-6.03;83.64;99375.77;108436;1268;24193;-76
2024/01/17 03:16:23;;;;;;;73.90;23.80;;;;;;;-6.07;83.38;99373.20;108494;1266;22862;-77
2024/01/17 03:19:16;;;;;;;70.10;22.80;;;;;;;-6.09;83.68;99373.13;108324;1266;22621;-77
2024/01/17 03:22:07;;;;;;;61.40;21.80;;;;;;;-6.11;83.83;99374.75;108495;1274;22755;-77
2024/01/17 03:24:58;;;;;;;71.10;25.30;;;;;;;-6.13;84.09;99373.28;108444;1266;23274;-77
2024/01/17 03:27:48;;;;;;;72.70;25.50;;;;;;;-6.11;84.28;99373.83;108368;1274;27375;-77
2024/01/17 03:30:39;;;;;;;76.60;27.60;;;;;;;-6.11;84.18;99366.44;108442;1274;23172;-77
2024/01/17 03:33:28;;;;;;;;;;;;;;;-6.12;84.31;99358.54;108467;1265;23228;-79
2024/01/17 03:36:19;;;;;;;73.20;27.20;;;;;;;-6.16;84.14;99358.38;108471;1271;22669;-76
2024/01/17 03:39:10;;;;;;;70.30;26.80;;;;;;;-6.18;84.24;99350.38;108507;1273;24197;-79
2024/01/17 03:42:02;;;;;;;70.60;24.30;;;;;;;-6.19;84.14;99348.30;108489;1273;23165;-76
2024/01/17 03:44:52;;;;;;;73.10;25.00;;;;;;;-6.22;84.35;99346.52;108507;1274;25573;-77
2024/01/17 03:47:43;;;;;;;73.60;26.50;;;;;;;-6.23;84.25;99351.02;108506;1262;22847;-76
2024/01/17 03:50:34;;;;;;;78.20;28.30;;;;;;;-6.26;84.13;99347.99;108391;1274;22919;-76
2024/01/17 03:53:25;;;;;;;71.80;25.50;;;;;;;-6.27;84.19;99347.05;108560;1268;22698;-76
2024/01/17 03:56:16;;;;;;;76.10;25.00;;;;;;;-6.28;84.00;99345.27;108562;1273;24317;-77
2024/01/17 03:59:08;;;;;;;68.10;24.60;;;;;;;-6.29;84.13;99338.59;108464;1270;26088;-81
2024/01/17 04:01:59;;;;;;;64.50;22.50;;;;;;;-6.30;83.88;99335.48;108492;1274;23473;-76
2024/01/17 04:04:49;;;;;;;57.10;20.10;;;;;;;-6.34;83.77;99328.73;108291;1274;23637;-77
2024/01/17 04:07:40;;;;;;;58.00;20.40;;;;;;;-6.34;84.12;99320.05;108152;1274;22694;-80
2024/01/17 04:10:29;;;;;;;;;;;;;;;-6.35;84.05;99316.17;107510;1274;24092;-76
2024/01/17 04:13:20;;;;;;;61.90;22.40;;;;;;;-6.37;84.20;99306.08;107903;1274;25612;-76
2024/01/17 04:16:11;;;;;;;62.40;20.70;;;;;;;-6.38;84.14;99295.39;107863;1274;22576;-77
2024/01/17 04:19:02;;;;;;;59.20;21.30;;;;;;;-6.41;84.09;99285.14;107215;1275;22632;-75
2024/01/17 04:21:56;;;;;;;55.50;20.20;;;;;;;-6.43;84.07;99278.93;107385;1275;23066;-77
2024/01/17 04:24:48;;;;;;;61.40;20.60;;;;;;;-6.46;84.20;99270.09;107479;1273;22755;-78
2024/01/17 04:27:39;;;;;;;56.40;20.90;;;;;;;-6.48;84.32;99260.79;107350;1275;25586;-76
2024/01/17 04:30:30;;;;;;;60.00;21.00;;;;;;;-6.50;84.36;99255.58;107305;1274;24437;-76
2024/01/17 04:33:21;;;;;;;59.10;20.50;;;;;;;-6.52;84.31;99248.61;107620;1272;24174;-76
2024/01/17 04:36:12;;;;;;;61.60;22.20;;;;;;;-6.52;84.47;99246.60;107555;1274;22761;-77
2024/01/17 04:39:04;;;;;;;82.70;27.60;;;;;;;-6.53;84.34;99245.20;107305;1275;22908;-75
2024/01/17 04:41:56;;;;;;;90.10;31.30;;;;;;;-6.57;83.95;99243.27;107673;1273;25730;-77
2024/01/17 04:44:48;;;;;;;99.20;35.60;;;;;;;-6.61;83.84;99240.63;107929;1273;22782;-76
2024/01/17 04:47:39;;;;;;;123.80;43.20;;;;;;;-6.65;83.71;99233.17;107715;1273;23000;-76
2024/01/17 04:50:31;;;;;;;141.10;50.60;;;;;;;-6.69;83.48;99238.22;107480;1273;22578;-75
2024/01/17 04:53:22;;;;;;;163.60;55.90;;;;;;;-6.73;83.26;99238.06;107551;1275;24123;-75
2024/01/17 04:56:13;;;;;;;115.90;41.60;;;;;;;-6.79;82.71;99240.70;107477;1270;24295;-77
2024/01/17 04:59:04;;;;;;;100.80;34.70;;;;;;;-6.90;82.38;99239.14;107539;1274;22639;-76
2024/01/17 05:01:53;;;;;;;;;;;;;;;-6.95;82.80;99237.05;107629;1274;25334;-75
2024/01/17 05:04:44;;;;;;;91.80;32.90;;;;;;;-7.01;82.67;99233.32;107339;1274;22766;-75
2024/01/17 05:07:35;;;;;;;105.70;38.80;;;;;;;-7.05;82.95;99226.88;107385;1274;25372;-76
2024/01/17 05:10:26;;;;;;;97.40;35.80;;;;;;;-7.07;82.87;99222.39;107425;1274;22834;-76
2024/01/17 05:13:17;;;;;;;97.60;36.20;;;;;;;-7.10;83.08;99216.65;107481;1274;22671;-76
2024/01/17 05:16:09;;;;;;;85.00;32.50;;;;;;;-7.13;82.80;99205.17;107442;1271;22602;-75
2024/01/17 05:18:59;;;;;;;80.90;29.10;;;;;;;-7.13;83.42;99202.16;107290;1276;24379;-75
2024/01/17 05:21:51;;;;;;;74.30;26.50;;;;;;;-7.14;83.18;99199.77;107253;1276;24316;-77
2024/01/17 05:24:42;;;;;;;73.70;27.60;;;;;;;-7.15;83.04;99191.46;107251;1276;23118;-75
2024/01/17 05:27:33;;;;;;;70.60;29.00;;;;;;;-7.22;82.55;99190.14;107346;1274;25520;-76
2024/01/17 05:30:24;;;;;;;85.60;31.30;;;;;;;-7.28;82.38;99189.66;107702;1275;22654;-76
2024/01/17 05:33:16;;;;;;;75.70;28.20;;;;;;;-7.36;82.08;99183.46;107606;1274;24031;-76
2024/01/17 05:36:09;;;;;;;58.20;21.90;;;;;;;-7.48;81.39;99178.56;107472;1276;22954;-76
2024/01/17 05:39:00;;;;;;;55.70;20.30;;;;;;;-7.65;81.43;99171.63;107506;1257;22966;-76
2024/01/17 05:41:51;;;;;;;61.70;21.40;;;;;;;-7.72;81.71;99166.03;107499;1276;25541;-76
2024/01/17 05:44:42;;;;;;;64.80;21.30;;;;;;;-7.73;81.99;99162.31;107415;1276;24065;-76
2024/01/17 05:47:33;;;;;;;60.30;20.50;;;;;;;-7.76;81.73;99167.18;107618;1271;23079;-76
2024/01/17 05:50:25;;;;;;;56.20;21.00;;;;;;;-7.79;81.79;99166.87;107544;1274;22867;-76
2024/01/17 05:53:16;;;;;;;64.70;21.00;;;;;;;-7.83;81.59;99167.77;107572;1261;25515;-76
2024/01/17 05:56:08;;;;;;;68.50;21.80;;;;;;;-7.86;81.74;99166.84;107648;1275;23071;-75
2024/01/17 05:58:59;;;;;;;57.10;21.00;;;;;;;-7.89;81.58;99169.31;107465;1257;25325;-75
2024/01/17 06:01:51;;;;;;;67.20;21.80;;;;;;;-7.93;81.67;99169.38;107580;1276;22757;-76
2024/01/17 06:04:42;;;;;;;70.70;22.30;;;;;;;-7.94;81.99;99164.34;107520;1276;25353;-75
2024/01/17 06:07:32;;;;;;;60.40;22.50;;;;;;;-7.96;82.23;99158.30;107552;1276;23518;-76
2024/01/17 06:10:25;;;;;;;67.60;22.70;;;;;;;-7.94;82.26;99158.30;107642;1276;23052;-76
2024/01/17 06:13:16;;;;;;;66.70;21.80;;;;;;;-7.95;82.05;99161.64;107558;1276;26678;-75
2024/01/17 06:16:07;;;;;;;63.90;23.60;;;;;;;-7.94;82.08;99156.91;107671;1276;22737;-79
2024/01/17 06:18:59;;;;;;;70.50;23.10;;;;;;;-7.96;81.87;99156.91;107538;1274;22585;-76
2024/01/17 06:21:50;;;;;;;62.80;21.50;;;;;;;-7.99;81.66;99157.83;107603;1274;23017;-75
2024/01/17 06:24:40;;;;;;;53.40;19.70;;;;;;;-8.02;81.64;99161.68;107689;1274;22639;-75
2024/01/17 06:27:32;;;;;;;53.20;19.00;;;;;;;-8.07;81.48;99160.44;107510;1274;23233;-75
2024/01/17 06:30:23;;;;;;;55.10;19.70;;;;;;;-8.06;82.08;99157.27;107500;1274;22898;-76
2024/01/17 06:33:14;;;;;;;56.30;20.80;;;;;;;-8.03;82.41;99151.93;107720;1274;21986;-75
2024/01/17 06:36:08;;;;;;;59.10;21.20;;;;;;;-8.01;82.60;99145.73;107588;1274;24370;-76
2024/01/17 06:38:58;;;;;;;52.20;22.00;;;;;;;-8.00;82.63;99142.51;107771;1274;25501;-76
2024/01/17 06:41:48;;;;;;;;;;;;;;;-7.99;82.74;99133.98;107899;1273;22658;-77
2024/01/17 06:44:39;;;;;;;63.10;23.50;;;;;;;-7.99;82.81;99129.96;107728;1272;24342;-76
2024/01/17 06:47:29;;;;;;;67.30;23.00;;;;;;;-7.99;83.09;99122.93;107624;1274;22599;-75
2024/01/17 06:50:20;;;;;;;61.30;21.70;;;;;;;-7.98;83.28;99119.14;107733;1252;23030;-76
2024/01/17 06:53:13;;;;;;;75.00;22.40;;;;;;;-7.97;83.57;99118.59;107652;1274;25582;-75
2024/01/17 06:56:04;;;;;;;66.70;22.50;;;;;;;-7.95;83.79;99114.35;110646;1274;23040;-75
2024/01/17 06:58:54;;;;;;;68.00;23.70;;;;;;;-7.93;83.98;99113.49;110658;1268;22135;-77
2024/01/17 07:01:46;;;;;;;69.70;23.80;;;;;;;-7.88;84.18;99108.33;110676;1274;22308;-77
2024/01/17 07:04:40;;;;;;;68.60;22.90;;;;;;;-7.85;84.19;99094.79;110677;1274;22319;-76
2024/01/17 07:07:31;;;;;;;68.60;26.40;;;;;;;-7.80;84.37;99088.59;110663;1267;22588;-76
2024/01/17 07:10:24;;;;;;;69.90;24.80;;;;;;;-7.75;84.24;99085.75;110471;1267;22489;-77
2024/01/17 07:13:15;;;;;;;60.30;23.90;;;;;;;-7.73;84.29;99080.02;110676;1266;22974;-75
2024/01/17 07:16:07;;;;;;;63.00;24.60;;;;;;;-7.69;84.06;99077.86;110690;1267;21975;-79
2024/01/17 07:18:58;;;;;;;53.20;20.70;;;;;;;-7.67;84.15;99072.21;110728;1274;22176;-77
2024/01/17 07:21:49;;;;;;;65.60;24.70;;;;;;;-7.65;84.30;99070.59;110653;1274;22702;-76
2024/01/17 07:24:40;;;;;;;67.40;24.20;;;;;;;-7.60;84.37;99060.06;110700;1274;22334;-76
2024/01/17 07:27:31;;;;;;;71.90;25.30;;;;;;;-7.55;84.47;99057.13;110635;1271;22203;-76
2024/01/17 07:30:22;;;;;;;78.40;26.60;;;;;;;-7.49;84.38;99052.95;110681;1267;22226;-77
2024/01/17 07:33:12;;;;;;;;;;;;;;;-7.46;84.38;99048.53;110666;1270;22399;-75
2024/01/17 07:36:03;;;;;;;74.90;27.80;;;;;;;-7.42;84.58;99044.34;110668;1270;22317;-76
2024/01/17 07:38:53;;;;;;;77.40;30.50;;;;;;;-7.39;84.48;99044.65;110714;1272;23145;-76
2024/01/17 07:41:42;;;;;;;;;;;;;;;-7.37;84.53;99045.89;110739;1270;22311;-76
2024/01/17 07:44:33;;;;;;;77.70;29.90;;;;;;;-7.37;84.42;99040.16;110660;1270;22272;-76
2024/01/17 07:47:24;;;;;;;71.90;24.80;;;;;;;-7.53;83.42;99032.73;110660;1274;22296;-76
2024/01/17 07:50:15;;;;;;;66.10;26.10;;;;;;;-7.75;83.44;99030.02;110666;1272;22251;-76
2024/01/17 07:53:07;;;;;;;73.50;26.70;;;;;;;-7.82;83.93;99032.64;110634;1272;22344;-76
2024/01/17 07:55:59;;;;;;;63.70;26.20;;;;;;;-7.85;84.21;99021.65;110639;1270;22527;-78
2024/01/17 07:58:50;;;;;;;69.60;27.20;;;;;;;-7.84;84.38;99023.05;110649;1270;22314;-76
2024/01/17 08:01:40;;;;;;;73.10;27.40;;;;;;;-7.86;84.26;99019.41;110661;1268;22217;-77
2024/01/17 08:04:30;;;;;;;;;;;;;;;-7.79;84.72;99011.98;110698;1263;22963;-76
2024/01/17 08:07:24;;;;;;;86.20;33.70;;;;;;;-7.72;84.53;99002.77;110674;1267;22184;-77
2024/01/17 08:10:16;;;;;;;91.10;32.90;;;;;;;-7.67;84.64;98995.34;110682;1274;23821;-77
2024/01/17 08:13:07;;;;;;;65.30;27.60;;;;;;;-7.60;84.64;98995.03;110682;1274;22375;-79
2024/01/17 08:15:58;;;;;;;80.10;30.80;;;;;;;-7.53;84.81;98994.48;110674;1273;22353;-76
2024/01/17 08:18:50;;;;;;;78.90;30.10;;;;;;;-7.47;84.67;98986.34;110705;1274;23143;-75
2024/01/17 08:21:41;;;;;;;73.20;28.00;;;;;;;-7.43;84.94;98974.88;110660;1274;22214;-77
2024/01/17 08:24:32;;;;;;;75.80;27.70;;;;;;;-7.41;84.99;98974.02;110668;1274;22323;-75
2024/01/17 08:27:23;;;;;;;82.90;28.00;;;;;;;-7.39;85.32;98964.63;110634;1270;22999;-76
2024/01/17 08:30:15;;;;;;;75.50;29.90;;;;;;;-7.35;85.55;98955.80;110645;1267;22181;-76
2024/01/17 08:33:06;;;;;;;84.80;30.90;;;;;;;-7.27;85.67;98942.61;110652;1270;22384;-77
2024/01/17 08:35:57;;;;;;;91.10;33.90;;;;;;;-7.19;85.78;98932.83;110659;1273;22138;-77
2024/01/17 08:38:48;;;;;;;119.10;44.40;;;;;;;-7.12;85.83;98921.58;110663;1274;22108;-75
2024/01/17 08:41:40;;;;;;;;;;;;;;;-7.04;85.86;98924.73;110677;1267;22447;-76
2024/01/17 08:44:31;;;;;;;386.00;130.40;;;;;;;-6.99;86.06;98923.54;110654;1274;22554;-76
2024/01/17 08:47:21;;;;;;;231.30;80.80;;;;;;;-6.94;86.12;98929.02;110647;1274;22353;-77
2024/01/17 08:50:14;;;;;;;134.60;51.40;;;;;;;-6.86;86.14;98924.73;110696;1270;22156;-76
2024/01/17 08:53:06;;;;;;;108.70;44.00;;;;;;;-6.80;86.09;98915.70;110641;1267;22382;-76
2024/01/17 08:55:58;;;;;;;97.40;41.80;;;;;;;-6.74;86.25;98907.06;110682;1268;22342;-76
2024/01/17 08:58:49;;;;;;;91.80;39.10;;;;;;;-6.67;86.54;98895.39;110635;1267;22163;-77
2024/01/17 09:01:40;;;;;;;94.90;39.30;;;;;;;-6.57;86.99;98886.73;110563;1270;126180;-76
2024/01/17 09:04:32;;;;;;;87.40;38.80;;;;;;;-6.48;87.21;98894.34;110644;1270;22339;-78
2024/01/17 09:07:23;;;;;;;84.30;33.90;;;;;;;-6.38;87.29;98896.21;110627;1267;22206;-74
2024/01/17 09:10:14;;;;;;;74.60;28.60;;;;;;;-6.26;87.48;98889.38;110655;1267;22604;-73
2024/01/17 09:13:05;;;;;;;59.40;26.30;;;;;;;-6.16;87.95;98883.86;110672;1274;22323;-76
2024/01/17 09:15:55;;;;;;;62.80;26.00;;;;;;;-6.05;88.16;98876.88;110697;1274;22468;-75
2024/01/17 09:18:46;;;;;;;66.40;26.00;;;;;;;-5.92;88.25;98867.05;110683;1274;22396;-75
2024/01/17 09:21:37;;;;;;;66.20;26.50;;;;;;;-5.80;88.29;98857.06;110616;1274;22343;-75
2024/01/17 09:24:28;;;;;;;69.80;28.20;;;;;;;-5.69;88.19;98850.17;110616;1273;22233;-76
2024/01/17 09:27:17;;;;;;;;;;;;;;;-5.58;88.20;98842.30;110587;1269;23245;-75
2024/01/17 09:30:10;;;;;;;66.50;23.90;;;;;;;-5.50;88.12;98838.88;110667;1267;22349;-75
2024/01/17 09:33:01;;;;;;;64.50;28.10;;;;;;;-5.44;88.16;98828.30;110700;1269;23281;-75
2024/01/17 09:35:52;;;;;;;60.00;25.40;;;;;;;-5.36;88.12;98830.39;110644;1273;22954;-74
2024/01/17 09:38:42;;;;;;;63.90;22.60;;;;;;;-5.28;88.17;98829.29;110199;1272;22665;-74
2024/01/17 09:41:33;;;;;;;63.10;25.70;;;;;;;-5.18;88.43;98831.87;107767;1267;22640;-75
2024/01/17 09:44:25;;;;;;;61.20;23.10;;;;;;;-5.08;88.32;98818.69;107898;1274;22717;-75
2024/01/17 09:47:19;;;;;;;53.80;22.90;;;;;;;-4.99;88.21;98810.17;108008;1267;24346;-74
2024/01/17 09:50:11;;;;;;;65.90;25.30;;;;;;;-4.88;88.44;98805.12;110625;1268;22258;-75
2024/01/17 09:53:04;;;;;;;61.20;25.40;;;;;;;-4.79;88.23;98788.81;110640;1272;22379;-75
2024/01/17 09:55:56;;;;;;;57.30;22.10;;;;;;;-4.71;88.25;98783.02;110644;1273;22332;-77
2024/01/17 09:58:51;;;;;;;58.20;22.20;;;;;;;-4.63;88.15;98777.75;110648;1274;22674;-76
2024/01/17 10:01:43;;;;;;;57.00;22.30;;;;;;;-4.56;88.11;98768.61;110634;1273;22327;-75
2024/01/17 10:04:36;;;;;;;48.00;19.90;;;;;;;-4.48;88.08;98758.92;110596;1270;22619;-75
2024/01/17 10:07:28;;;;;;;50.30;21.50;;;;;;;-4.41;88.03;98750.55;110639;1274;23421;-77
2024/01/17 10:10:21;;;;;;;61.30;24.00;;;;;;;-4.34;87.99;98738.36;109236;1267;25732;-75
2024/01/17 10:13:12;;;;;;;57.20;23.10;;;;;;;-4.26;87.92;98735.73;107514;1267;22604;-75
2024/01/17 10:16:05;;;;;;;51.10;21.20;;;;;;;-4.20;87.80;98725.65;107737;1274;22858;-75
2024/01/17 10:18:56;;;;;;;58.60;21.90;;;;;;;-4.12;87.91;98726.52;107570;1274;24259;-75
2024/01/17 10:21:47;;;;;;;58.20;22.40;;;;;;;-4.05;87.87;98716.97;107561;1274;24205;-75
2024/01/17 10:24:39;;;;;;;49.50;19.30;;;;;;;-3.99;87.72;98717.58;107695;1274;22849;-75
2024/01/17 10:27:31;;;;;;;76.20;28.40;;;;;;;-3.94;87.60;98714.51;107661;1267;26449;-76
2024/01/17 10:30:22;;;;;;;77.90;31.30;;;;;;;-3.89;87.67;98706.94;110628;1263;22259;-75
2024/01/17 10:33:13;;;;;;;65.80;26.10;;;;;;;-3.83;87.77;98696.69;110657;1267;22302;-75
2024/01/17 10:36:07;;;;;;;64.00;27.60;;;;;;;-3.77;87.73;98686.99;110660;1267;22238;-76
2024/01/17 10:39:04;;;;;;;73.60;29.40;;;;;;;-3.72;87.86;98683.05;109586;1267;23189;-75
2024/01/17 10:41:58;;;;;;;60.30;24.70;;;;;;;-3.65;87.84;98678.15;110651;1271;22890;-76
2024/01/17 10:44:48;;;;;;;56.10;21.50;;;;;;;-3.59;87.78;98667.52;110661;1267;22945;-76
2024/01/17 10:47:37;;;;;;;;;;;;;;;-3.55;87.59;98654.16;110656;1268;22479;-76
2024/01/17 10:50:28;;;;;;;59.60;23.50;;;;;;;-3.51;87.41;98647.06;110659;1273;22784;-76
2024/01/17 10:53:20;;;;;;;62.10;22.70;;;;;;;-3.46;87.55;98645.95;110580;1274;22856;-76
2024/01/17 10:56:11;;;;;;;61.30;24.80;;;;;;;-3.41;87.58;98642.87;110628;1274;22562;-77
2024/01/17 10:59:05;;;;;;;58.70;22.80;;;;;;;-3.35;87.58;98633.29;109031;1267;22705;-78
2024/01/17 11:01:56;;;;;;;51.40;20.80;;;;;;;-3.26;87.60;98630.52;107410;1270;22613;-76
2024/01/17 11:04:49;;;;;;;55.50;23.70;;;;;;;-3.18;87.82;98617.15;110492;1267;23119;-74
2024/01/17 11:07:42;;;;;;;56.40;23.90;;;;;;;-3.08;87.82;98606.56;110569;1268;22319;-74
2024/01/17 11:10:34;;;;;;;60.90;23.50;;;;;;;-3.00;87.89;98602.38;110600;1272;22317;-75
2024/01/17 11:13:26;;;;;;;61.40;23.40;;;;;;;-2.92;88.04;98599.27;110570;1274;23197;-75
2024/01/17 11:16:18;;;;;;;57.20;23.00;;;;;;;-2.83;88.01;98595.47;110618;1267;22451;-74
2024/01/17 11:19:09;;;;;;;54.50;22.00;;;;;;;-2.76;87.88;98588.34;110638;1273;22260;-74
2024/01/17 11:22:01;;;;;;;50.20;22.10;;;;;;;-2.69;87.90;98578.00;110667;1274;22257;-74
2024/01/17 11:25:01;;;;;;;51.00;21.10;;;;;;;-2.61;87.90;98563.03;110693;1274;22483;-74
2024/01/17 11:28:00;;;;;;;46.30;18.50;;;;;;;-2.53;87.95;98557.83;110600;1274;22431;-74
2024/01/17 11:31:11;;;;;;;54.10;20.80;;;;;;;-2.41;87.82;98557.11;110572;1267;22325;-74
2024/01/17 11:34:03;;;;;;;51.10;18.80;;;;;;;-2.32;87.83;98545.61;110496;1267;23406;-75
2024/01/17 11:36:58;;;;;;;48.70;19.60;;;;;;;-2.23;87.61;98542.01;110558;1269;22217;-77
2024/01/17 11:39:59;;;;;;;48.70;17.30;;;;;;;-2.16;87.42;98537.11;110646;1274;22822;-77
2024/01/17 11:42:53;;;;;;;50.60;18.30;;;;;;;-2.09;87.37;98527.45;110536;1268;22157;-75
2024/01/17 11:45:50;;;;;;;52.30;19.80;;;;;;;-2.03;87.36;98515.55;109516;1268;22570;-77
2024/01/17 11:48:44;;;;;;;47.80;18.10;;;;;;;-1.98;87.29;98510.25;108330;1274;22636;-76
2024/01/17 11:51:40;;;;;;;55.40;21.40;;;;;;;-1.94;87.04;98505.19;107884;1274;22607;-76
2024/01/17 11:54:47;;;;;;;47.00;18.40;;;;;;;-1.91;86.88;98496.11;108031;1274;24622;-75
2024/01/17 11:57:58;;;;;;;59.20;23.20;;;;;;;-1.87;87.11;98488.73;107643;1267;132992;-75
2024/01/17 12:00:54;;;;;;;54.00;24.10;;;;;;;-1.81;87.33;98483.39;107621;1274;24303;-75
2024/01/17 12:03:46;;;;;;;59.50;24.00;;;;;;;-1.77;87.30;98471.76;107503;1262;22564;-77
2024/01/17 12:06:41;;;;;;;57.50;23.90;;;;;;;-1.75;87.38;98464.19;107580;1267;22582;-78
2024/01/17 19:16:12;;;;;;;62.20;28.20;;;;;;;0.47;94.02;97655.11;104640;1310;542847;-82
2024/01/17 19:19:05;;;;;;;62.00;28.50;;;;;;;0.48;94.01;97649.25;107993;1266;22539;-80
2024/01/17 19:21:56;;;;;;;60.30;27.90;;;;;;;0.51;94.03;97649.89;107916;1272;24232;-78
2024/01/17 19:24:50;;;;;;;64.10;28.30;;;;;;;0.53;94.04;97644.73;107826;1272;23958;-78
2024/01/17 19:27:46;;;;;;;60.80;29.10;;;;;;;0.55;93.99;97639.67;107724;1272;22525;-77
2024/01/17 19:30:37;;;;;;;62.10;25.60;;;;;;;0.58;94.07;97637.29;108057;1269;129751;-78
2024/01/17 19:33:28;;;;;;;70.00;27.70;;;;;;;0.58;94.07;97639.48;108276;1269;22516;-76
2024/01/17 19:36:21;;;;;;;63.30;25.80;;;;;;;0.60;94.17;97641.67;108043;1269;22653;-79
2024/01/17 19:39:12;;;;;;;46.90;20.20;;;;;;;0.61;94.11;97636.59;107944;1270;22571;-77
2024/01/17 19:42:04;;;;;;;52.50;22.20;;;;;;;0.63;94.21;97629.03;107940;1270;23922;-77
2024/01/17 19:44:55;;;;;;;60.30;24.20;;;;;;;0.64;94.33;97620.31;108101;1266;25317;-79
2024/01/17 19:47:46;;;;;;;57.90;23.80;;;;;;;0.64;94.44;97602.79;108110;1263;25268;-79
2024/01/17 19:50:37;;;;;;;55.40;23.70;;;;;;;0.65;94.56;97589.33;108514;1263;22561;-80
2024/01/17 19:53:28;;;;;;;55.50;23.20;;;;;;;0.66;94.63;97581.75;108422;1263;22636;-78
2024/01/17 19:56:19;;;;;;;61.10;25.10;;;;;;;0.67;94.79;97572.03;108148;1261;23888;-79
2024/01/17 19:59:11;;;;;;;52.80;20.00;;;;;;;0.67;94.88;97568.73;108434;1267;22724;-79
2024/01/17 20:02:02;;;;;;;46.30;18.20;;;;;;;0.68;95.03;97567.26;108454;1244;22545;-81
2024/01/17 20:04:54;;;;;;;47.50;20.20;;;;;;;0.68;95.11;97565.15;108483;1260;22615;-79
2024/01/17 20:07:45;;;;;;;65.30;23.60;;;;;;;0.69;95.23;97561.13;108519;1263;22523;-79
2024/01/17 20:10:37;;;;;;;67.50;26.50;;;;;;;0.69;95.18;97548.80;108534;1263;24202;-80
2024/01/17 20:13:29;;;;;;;62.80;26.00;;;;;;;0.70;95.26;97555.00;108270;1260;25402;-79